createdAt,value
2023-04-27T00:00:39.369Z,94534.00
2023-04-27T00:01:39.483Z,94534.00
2023-04-27T00:02:39.509Z,94536.00
2023-04-27T00:03:39.505Z,94536.00
2023-04-27T00:04:39.618Z,94534.00
2023-04-27T00:05:39.641Z,94532.00
2023-04-27T00:06:39.324Z,94532.00
2023-04-27T00:07:39.333Z,94530.00
2023-04-27T00:08:39.311Z,94530.00
2023-04-27T00:09:39.336Z,94530.00
2023-04-27T00:10:39.295Z,94530.00
2023-04-27T00:11:39.354Z,94532.00
2023-04-27T00:12:39.273Z,94532.00
2023-04-27T00:13:39.276Z,94530.00
2023-04-27T00:14:39.257Z,94532.00
2023-04-27T00:15:39.280Z,94532.00
2023-04-27T00:16:39.254Z,94530.00
2023-04-27T00:17:39.268Z,94532.00
2023-04-27T00:18:39.241Z,94526.00
2023-04-27T00:19:39.235Z,94530.00
2023-04-27T00:20:39.217Z,94528.00
2023-04-27T00:21:39.216Z,94528.00
2023-04-27T00:22:39.200Z,94526.00
2023-04-27T00:23:39.219Z,94522.00
2023-04-27T00:24:39.175Z,94524.00
2023-04-27T00:25:39.201Z,94518.00
2023-04-27T00:26:39.237Z,94524.00
2023-04-27T00:27:39.216Z,94518.00
2023-04-27T00:28:39.228Z,94518.00
2023-04-27T00:29:39.257Z,94516.00
2023-04-27T00:30:39.291Z,94514.00
2023-04-27T00:31:39.388Z,94520.00
2023-04-27T00:32:39.414Z,94512.00
2023-04-27T00:33:39.320Z,94512.00
2023-04-27T00:34:39.321Z,94516.00
2023-04-27T00:35:39.349Z,94514.00
2023-04-27T00:36:39.348Z,94520.00
2023-04-27T00:37:39.365Z,94516.00
2023-04-27T00:38:39.407Z,94516.00
2023-04-27T00:39:39.423Z,94514.00
2023-04-27T00:40:39.417Z,94514.00
2023-04-27T00:41:39.429Z,94514.00
2023-04-27T00:42:39.439Z,94514.00
2023-04-27T00:43:39.439Z,94514.00
2023-04-27T00:44:40.060Z,94514.00
2023-04-27T00:45:39.545Z,94514.00
2023-04-27T00:46:39.502Z,94510.00
2023-04-27T00:47:39.539Z,94512.00
2023-04-27T00:48:39.535Z,94508.00
2023-04-27T00:49:39.570Z,94510.00
2023-04-27T00:50:39.582Z,94510.00
2023-04-27T00:51:39.612Z,94512.00
2023-04-27T00:52:39.669Z,94512.00
2023-04-27T00:53:39.611Z,94512.00
2023-04-27T00:54:39.601Z,94512.00
2023-04-27T00:55:39.638Z,94512.00
2023-04-27T00:56:39.627Z,94512.00
2023-04-27T00:57:39.658Z,94516.00
2023-04-27T00:58:39.656Z,94516.00
2023-04-27T00:59:39.684Z,94516.00
2023-04-27T01:00:39.709Z,94516.00
2023-04-27T01:01:39.765Z,94514.00
2023-04-27T01:02:39.826Z,94514.00
2023-04-27T01:03:39.935Z,94514.00
2023-04-27T01:04:39.770Z,94512.00
2023-04-27T01:05:39.773Z,94512.00
2023-04-27T01:06:39.770Z,94510.00
2023-04-27T01:07:39.776Z,94510.00
2023-04-27T01:08:39.786Z,94512.00
2023-04-27T01:09:39.814Z,94514.00
2023-04-27T01:10:39.821Z,94514.00
2023-04-27T01:11:39.825Z,94516.00
2023-04-27T01:12:39.865Z,94516.00
2023-04-27T01:13:39.846Z,94516.00
2023-04-27T01:14:39.870Z,94514.00
2023-04-27T01:15:39.883Z,94512.00
2023-04-27T01:16:39.941Z,94510.00
2023-04-27T01:17:39.924Z,94510.00
2023-04-27T01:18:39.884Z,94510.00
2023-04-27T01:19:39.869Z,94510.00
2023-04-27T01:20:39.880Z,94510.00
2023-04-27T01:21:39.853Z,94512.00
2023-04-27T01:22:39.881Z,94512.00
2023-04-27T01:23:39.853Z,94508.00
2023-04-27T01:24:39.850Z,94510.00
2023-04-27T01:25:39.857Z,94502.00
2023-04-27T01:26:39.854Z,94506.00
2023-04-27T01:27:39.850Z,94500.00
2023-04-27T01:28:39.857Z,94504.00
2023-04-27T01:29:39.830Z,94506.00
2023-04-27T01:30:39.893Z,94504.00
2023-04-27T01:31:39.930Z,94504.00
2023-04-27T01:32:39.868Z,94504.00
2023-04-27T01:33:39.866Z,94506.00
2023-04-27T01:34:39.822Z,94502.00
2023-04-27T01:35:39.836Z,94502.00
2023-04-27T01:36:39.849Z,94502.00
2023-04-27T01:37:39.831Z,94502.00
2023-04-27T01:38:39.843Z,94504.00
2023-04-27T01:39:39.817Z,94502.00
2023-04-27T01:40:39.836Z,94502.00
2023-04-27T01:41:39.861Z,94502.00
2023-04-27T01:42:39.866Z,94502.00
2023-04-27T01:43:39.837Z,94498.00
2023-04-27T01:44:39.838Z,94500.00
2023-04-27T01:45:39.826Z,94498.00
2023-04-27T01:46:39.898Z,94498.00
2023-04-27T01:47:39.850Z,94498.00
2023-04-27T01:48:39.826Z,94500.00
2023-04-27T01:49:39.833Z,94500.00
2023-04-27T01:50:39.828Z,94502.00
2023-04-27T01:51:39.821Z,94498.00
2023-04-27T01:52:39.827Z,94500.00
2023-04-27T01:53:39.841Z,94498.00
2023-04-27T01:54:39.839Z,94498.00
2023-04-27T01:55:39.811Z,94496.00
2023-04-27T01:56:39.801Z,94498.00
2023-04-27T01:57:39.816Z,94498.00
2023-04-27T01:58:39.804Z,94498.00
2023-04-27T01:59:39.821Z,94502.00
2023-04-27T02:00:39.796Z,94504.00
2023-04-27T02:01:39.841Z,94504.00
2023-04-27T02:02:39.963Z,94504.00
2023-04-27T02:03:39.891Z,94510.00
2023-04-27T02:04:39.973Z,94512.00
2023-04-27T02:05:39.782Z,94516.00
2023-04-27T02:06:39.778Z,94518.00
2023-04-27T02:07:39.781Z,94518.00
2023-04-27T02:08:39.784Z,94518.00
2023-04-27T02:09:39.790Z,94516.00
2023-04-27T02:10:39.790Z,94514.00
2023-04-27T02:11:39.795Z,94512.00
2023-04-27T02:12:39.769Z,94512.00
2023-04-27T02:13:39.774Z,94514.00
2023-04-27T02:14:39.762Z,94514.00
2023-04-27T02:15:39.751Z,94518.00
2023-04-27T02:16:39.787Z,94524.00
2023-04-27T02:17:39.816Z,94524.00
2023-04-27T02:18:39.809Z,94528.00
2023-04-27T02:19:39.758Z,94532.00
2023-04-27T02:20:39.748Z,94532.00
2023-04-27T02:21:39.755Z,94536.00
2023-04-27T02:22:39.738Z,94538.00
2023-04-27T02:23:39.759Z,94540.00
2023-04-27T02:24:39.757Z,94538.00
2023-04-27T02:25:39.767Z,94536.00
2023-04-27T02:26:39.771Z,94532.00
2023-04-27T02:27:39.785Z,94528.00
2023-04-27T02:28:39.753Z,94526.00
2023-04-27T02:29:39.755Z,94528.00
2023-04-27T02:30:39.758Z,94530.00
2023-04-27T02:31:39.774Z,94536.00
2023-04-27T02:32:39.802Z,94540.00
2023-04-27T02:33:39.753Z,94543.00
2023-04-27T02:34:39.764Z,94543.00
2023-04-27T02:35:39.759Z,94543.00
2023-04-27T02:36:39.766Z,94540.00
2023-04-27T02:37:39.747Z,94542.00
2023-04-27T02:38:39.733Z,94542.00
2023-04-27T02:39:39.748Z,94538.00
2023-04-27T02:40:39.728Z,94538.00
2023-04-27T02:41:39.721Z,94534.00
2023-04-27T02:42:39.745Z,94534.00
2023-04-27T02:43:39.723Z,94532.00
2023-04-27T02:44:39.719Z,94532.00
2023-04-27T02:45:39.744Z,94528.00
2023-04-27T02:46:39.804Z,94532.00
2023-04-27T02:47:39.761Z,94528.00
2023-04-27T02:48:39.723Z,94524.00
2023-04-27T02:49:39.721Z,94524.00
2023-04-27T02:50:39.754Z,94518.00
2023-04-27T02:51:39.715Z,94520.00
2023-04-27T02:52:39.728Z,94512.00
2023-04-27T02:53:39.734Z,94512.00
2023-04-27T02:54:39.708Z,94512.00
2023-04-27T02:55:39.758Z,94514.00
2023-04-27T02:56:39.709Z,94516.00
2023-04-27T02:57:39.706Z,94516.00
2023-04-27T02:58:39.724Z,94516.00
2023-04-27T02:59:39.707Z,94518.00
2023-04-27T03:00:39.704Z,94520.00
2023-04-27T03:01:39.765Z,94516.00
2023-04-27T03:02:39.808Z,94518.00
2023-04-27T03:03:39.911Z,94520.00
2023-04-27T03:04:39.751Z,94522.00
2023-04-27T03:05:39.728Z,94522.00
2023-04-27T03:06:39.674Z,94524.00
2023-04-27T03:07:39.702Z,94522.00
2023-04-27T03:08:39.672Z,94520.00
2023-04-27T03:09:39.669Z,94520.00
2023-04-27T03:10:39.668Z,94522.00
2023-04-27T03:11:39.689Z,94524.00
2023-04-27T03:12:39.678Z,94524.00
2023-04-27T03:13:39.670Z,94522.00
2023-04-27T03:14:39.678Z,94520.00
2023-04-27T03:15:39.665Z,94516.00
2023-04-27T03:16:39.695Z,94514.00
2023-04-27T03:17:39.726Z,94516.00
2023-04-27T03:18:39.675Z,94516.00
2023-04-27T03:19:39.678Z,94518.00
2023-04-27T03:20:39.683Z,94520.00
2023-04-27T03:21:39.669Z,94522.00
2023-04-27T03:22:39.669Z,94524.00
2023-04-27T03:23:39.667Z,94526.00
2023-04-27T03:24:39.671Z,94526.00
2023-04-27T03:25:39.656Z,94528.00
2023-04-27T03:26:39.660Z,94530.00
2023-04-27T03:27:39.660Z,94532.00
2023-04-27T03:28:39.698Z,94534.00
2023-04-27T03:29:39.681Z,94534.00
2023-04-27T03:30:39.654Z,94534.00
2023-04-27T03:31:39.682Z,94534.00
2023-04-27T03:32:39.705Z,94538.00
2023-04-27T03:33:39.684Z,94536.00
2023-04-27T03:34:39.668Z,94530.00
2023-04-27T03:35:39.654Z,94534.00
2023-04-27T03:36:39.652Z,94532.00
2023-04-27T03:37:40.057Z,94534.00
2023-04-27T03:38:39.640Z,94534.00
2023-04-27T03:39:39.639Z,94536.00
2023-04-27T03:40:39.643Z,94536.00
2023-04-27T03:41:39.634Z,94536.00
2023-04-27T03:42:39.641Z,94538.00
2023-04-27T03:43:39.620Z,94538.00
2023-04-27T03:44:39.634Z,94540.00
2023-04-27T03:45:39.621Z,94538.00
2023-04-27T03:46:39.609Z,94542.00
2023-04-27T03:47:39.696Z,94543.00
2023-04-27T03:48:39.622Z,94547.00
2023-04-27T03:49:39.620Z,94547.00
2023-04-27T03:50:39.634Z,94549.00
2023-04-27T03:51:39.651Z,94553.00
2023-04-27T03:52:39.622Z,94551.00
2023-04-27T03:53:39.611Z,94551.00
2023-04-27T03:54:39.632Z,94553.00
2023-04-27T03:55:39.635Z,94553.00
2023-04-27T03:56:39.629Z,94553.00
2023-04-27T03:57:39.618Z,94551.00
2023-04-27T03:58:39.630Z,94553.00
2023-04-27T03:59:39.628Z,94553.00
2023-04-27T04:00:39.621Z,94557.00
2023-04-27T04:01:39.643Z,94561.00
2023-04-27T04:02:39.747Z,94563.00
2023-04-27T04:03:39.758Z,94563.00
2023-04-27T04:04:39.704Z,94563.00
2023-04-27T04:05:39.620Z,94565.00
2023-04-27T04:06:39.631Z,94565.00
2023-04-27T04:07:39.633Z,94567.00
2023-04-27T04:08:39.620Z,94565.00
2023-04-27T04:09:39.618Z,94561.00
2023-04-27T04:10:39.619Z,94561.00
2023-04-27T04:11:39.633Z,94563.00
2023-04-27T04:12:39.615Z,94563.00
2023-04-27T04:13:39.633Z,94563.00
2023-04-27T04:14:39.629Z,94565.00
2023-04-27T04:15:39.646Z,94565.00
2023-04-27T04:16:39.634Z,94565.00
2023-04-27T04:17:39.668Z,94567.00
2023-04-27T04:18:39.635Z,94569.00
2023-04-27T04:19:39.622Z,94569.00
2023-04-27T04:20:39.623Z,94571.00
2023-04-27T04:21:39.616Z,94575.00
2023-04-27T04:22:39.646Z,94575.00
2023-04-27T04:23:39.609Z,94577.00
2023-04-27T04:24:39.633Z,94581.00
2023-04-27T04:25:39.623Z,94581.00
2023-04-27T04:26:39.635Z,94583.00
2023-04-27T04:27:39.619Z,94585.00
2023-04-27T04:28:39.622Z,94587.00
2023-04-27T04:29:39.660Z,94587.00
2023-04-27T04:30:39.622Z,94589.00
2023-04-27T04:31:39.629Z,94592.00
2023-04-27T04:32:39.680Z,94592.00
2023-04-27T04:33:39.646Z,94596.00
2023-04-27T04:34:39.620Z,94598.00
2023-04-27T04:35:39.626Z,94600.00
2023-04-27T04:36:39.638Z,94604.00
2023-04-27T04:37:39.626Z,94606.00
2023-04-27T04:38:39.640Z,94606.00
2023-04-27T04:39:39.643Z,94610.00
2023-04-27T04:40:39.632Z,94610.00
2023-04-27T04:41:39.628Z,94614.00
2023-04-27T04:42:39.635Z,94616.00
2023-04-27T04:43:39.634Z,94616.00
2023-04-27T04:44:39.626Z,94618.00
2023-04-27T04:45:39.628Z,94620.00
2023-04-27T04:46:39.643Z,94622.00
2023-04-27T04:47:39.808Z,94624.00
2023-04-27T04:48:39.616Z,94624.00
2023-04-27T04:49:39.631Z,94624.00
2023-04-27T04:50:39.659Z,94626.00
2023-04-27T04:51:39.678Z,94626.00
2023-04-27T04:52:39.673Z,94628.00
2023-04-27T04:53:39.705Z,94630.00
2023-04-27T04:54:39.717Z,94628.00
2023-04-27T04:55:39.711Z,94630.00
2023-04-27T04:56:39.732Z,94628.00
2023-04-27T04:57:39.746Z,94628.00
2023-04-27T04:58:39.757Z,94632.00
2023-04-27T04:59:39.788Z,94628.00
2023-04-27T05:00:39.807Z,94628.00
2023-04-27T05:01:39.864Z,94628.00
2023-04-27T05:02:39.961Z,94630.00
2023-04-27T05:03:40.008Z,94628.00
2023-04-27T05:04:39.995Z,94628.00
2023-04-27T05:05:39.881Z,94628.00
2023-04-27T05:06:39.883Z,94632.00
2023-04-27T05:07:39.893Z,94634.00
2023-04-27T05:08:39.909Z,94645.00
2023-04-27T05:09:39.934Z,94651.00
2023-04-27T05:10:39.942Z,94651.00
2023-04-27T05:11:39.939Z,94649.00
2023-04-27T05:12:39.960Z,94649.00
2023-04-27T05:13:39.963Z,94651.00
2023-04-27T05:14:39.992Z,94649.00
2023-04-27T05:15:40.020Z,94649.00
2023-04-27T05:16:40.136Z,94653.00
2023-04-27T05:17:40.105Z,94653.00
2023-04-27T05:18:40.076Z,94659.00
2023-04-27T05:19:40.075Z,94657.00
2023-04-27T05:20:40.125Z,94659.00
2023-04-27T05:21:40.133Z,94661.00
2023-04-27T05:22:40.177Z,94663.00
2023-04-27T05:23:40.173Z,94663.00
2023-04-27T05:24:40.181Z,94663.00
2023-04-27T05:25:40.606Z,94665.00
2023-04-27T05:26:40.226Z,94667.00
2023-04-27T05:27:40.231Z,94663.00
2023-04-27T05:28:40.258Z,94665.00
2023-04-27T05:29:40.283Z,94671.00
2023-04-27T05:30:40.244Z,94669.00
2023-04-27T05:31:40.352Z,94673.00
2023-04-27T05:32:40.275Z,94673.00
2023-04-27T05:33:40.240Z,94671.00
2023-04-27T05:34:40.239Z,94669.00
2023-04-27T05:35:40.314Z,94673.00
2023-04-27T05:36:40.248Z,94675.00
2023-04-27T05:37:40.272Z,94671.00
2023-04-27T05:38:40.471Z,94673.00
2023-04-27T05:39:40.340Z,94669.00
2023-04-27T05:40:40.594Z,94671.00
2023-04-27T05:41:40.392Z,94669.00
2023-04-27T05:42:40.412Z,94667.00
2023-04-27T05:43:40.473Z,94669.00
2023-04-27T05:44:40.517Z,94673.00
2023-04-27T05:45:40.543Z,94671.00
2023-04-27T05:46:40.551Z,94673.00
2023-04-27T05:47:40.601Z,94673.00
2023-04-27T05:48:40.577Z,94677.00
2023-04-27T05:49:40.588Z,94679.00
2023-04-27T05:50:40.625Z,94681.00
2023-04-27T05:51:40.694Z,94679.00
2023-04-27T05:52:40.767Z,94681.00
2023-04-27T05:53:40.772Z,94681.00
2023-04-27T05:54:40.813Z,94681.00
2023-04-27T05:55:40.852Z,94681.00
2023-04-27T05:56:40.937Z,94677.00
2023-04-27T05:57:40.896Z,94681.00
2023-04-27T05:58:40.855Z,94681.00
2023-04-27T05:59:40.906Z,94681.00
2023-04-27T06:00:40.854Z,94683.00
2023-04-27T06:01:40.851Z,94679.00
2023-04-27T06:02:40.989Z,94679.00
2023-04-27T06:03:40.978Z,94683.00
2023-04-27T06:04:40.896Z,94683.00
2023-04-27T06:05:40.846Z,94683.00
2023-04-27T06:06:40.815Z,94685.00
2023-04-27T06:07:40.792Z,94683.00
2023-04-27T06:08:40.787Z,94687.00
2023-04-27T06:09:40.786Z,94689.00
2023-04-27T06:10:40.775Z,94687.00
2023-04-27T06:11:40.805Z,94685.00
2023-04-27T06:12:41.110Z,94687.00
2023-04-27T06:13:40.963Z,94687.00
2023-04-27T06:14:40.945Z,94689.00
2023-04-27T06:15:41.016Z,94694.00
2023-04-27T06:16:41.078Z,94696.00
2023-04-27T06:17:41.181Z,94696.00
2023-04-27T06:18:41.143Z,94696.00
2023-04-27T06:19:41.191Z,94698.00
2023-04-27T06:20:41.234Z,94696.00
2023-04-27T06:21:41.255Z,94698.00
2023-04-27T06:22:41.311Z,94694.00
2023-04-27T06:23:41.332Z,94694.00
2023-04-27T06:24:41.370Z,94696.00
2023-04-27T06:25:41.386Z,94698.00
2023-04-27T06:26:41.444Z,94696.00
2023-04-27T06:27:41.478Z,94698.00
2023-04-27T06:28:41.498Z,94696.00
2023-04-27T06:29:41.508Z,94700.00
2023-04-27T06:30:41.574Z,94694.00
2023-04-27T06:31:41.603Z,94692.00
2023-04-27T06:32:41.642Z,94692.00
2023-04-27T06:33:41.639Z,94690.00
2023-04-27T06:34:41.664Z,94696.00
2023-04-27T06:35:42.111Z,94694.00
2023-04-27T06:37:41.757Z,94696.00
2023-04-27T06:38:41.769Z,94694.00
2023-04-27T06:39:41.828Z,94698.00
2023-04-27T06:40:41.844Z,94702.00
2023-04-27T06:41:41.867Z,94702.00
2023-04-27T06:42:42.132Z,94704.00
2023-04-27T06:43:41.916Z,94704.00
2023-04-27T06:44:41.969Z,94700.00
2023-04-27T06:45:41.982Z,94702.00
2023-04-27T06:46:42.060Z,94702.00
2023-04-27T06:47:42.190Z,94702.00
2023-04-27T06:48:42.086Z,94698.00
2023-04-27T06:49:42.103Z,94696.00
2023-04-27T06:50:42.146Z,94698.00
2023-04-27T06:51:42.174Z,94700.00
2023-04-27T06:52:42.252Z,94700.00
2023-04-27T06:53:42.258Z,94706.00
2023-04-27T06:54:42.283Z,94700.00
2023-04-27T06:55:43.889Z,94702.00
2023-04-27T06:56:42.325Z,94708.00
2023-04-27T06:57:42.308Z,94706.00
2023-04-27T06:58:42.341Z,94704.00
2023-04-27T06:59:42.301Z,94706.00
2023-04-27T07:00:42.623Z,94708.00
2023-04-27T07:01:42.308Z,94704.00
2023-04-27T07:02:42.325Z,94710.00
2023-04-27T07:03:42.467Z,94712.00
2023-04-27T07:04:42.329Z,94712.00
2023-04-27T07:05:42.249Z,94716.00
2023-04-27T07:06:42.266Z,94708.00
2023-04-27T07:07:42.250Z,94710.00
2023-04-27T07:08:42.650Z,94712.00
2023-04-27T07:09:42.473Z,94712.00
2023-04-27T07:10:42.213Z,94714.00
2023-04-27T07:11:42.222Z,94716.00
2023-04-27T07:12:42.197Z,94714.00
2023-04-27T07:13:42.188Z,94716.00
2023-04-27T07:14:42.176Z,94716.00
2023-04-27T07:15:42.255Z,94716.00
2023-04-27T07:16:42.166Z,94718.00
2023-04-27T07:17:42.224Z,94716.00
2023-04-27T07:18:43.543Z,94718.00
2023-04-27T07:19:42.141Z,94716.00
2023-04-27T07:20:42.132Z,94716.00
2023-04-27T07:21:42.137Z,94720.00
2023-04-27T07:22:42.117Z,94718.00
2023-04-27T07:23:42.141Z,94720.00
2023-04-27T07:24:42.112Z,94718.00
2023-04-27T07:25:42.099Z,94714.00
2023-04-27T07:26:42.114Z,94718.00
2023-04-27T07:27:42.099Z,94720.00
2023-04-27T07:28:42.139Z,94716.00
2023-04-27T07:29:42.076Z,94718.00
2023-04-27T07:30:42.081Z,94714.00
2023-04-27T07:31:42.084Z,94714.00
2023-04-27T07:32:42.082Z,94712.00
2023-04-27T07:33:42.055Z,94714.00
2023-04-27T07:34:52.678Z,94716.00
2023-04-27T07:35:43.040Z,94718.00
2023-04-27T07:36:42.021Z,94718.00
2023-04-27T07:37:42.028Z,94718.00
2023-04-27T07:38:42.049Z,94720.00
2023-04-27T07:39:41.994Z,94716.00
2023-04-27T07:40:43.829Z,94716.00
2023-04-27T07:41:41.983Z,94716.00
2023-04-27T07:42:41.988Z,94718.00
2023-04-27T07:43:41.995Z,94720.00
2023-04-27T07:44:41.966Z,94716.00
2023-04-27T07:45:41.953Z,94716.00
2023-04-27T07:46:41.969Z,94718.00
2023-04-27T07:47:41.967Z,94720.00
2023-04-27T07:48:41.940Z,94722.00
2023-04-27T07:49:41.915Z,94720.00
2023-04-27T07:50:41.932Z,94722.00
2023-04-27T07:51:41.937Z,94722.00
2023-04-27T07:52:41.896Z,94720.00
2023-04-27T07:53:41.909Z,94716.00
2023-04-27T07:54:41.905Z,94718.00
2023-04-27T07:55:41.887Z,94718.00
2023-04-27T07:56:41.902Z,94720.00
2023-04-27T07:57:41.919Z,94720.00
2023-04-27T07:58:41.887Z,94720.00
2023-04-27T07:59:41.851Z,94722.00
2023-04-27T08:00:41.840Z,94720.00
2023-04-27T08:01:41.838Z,94718.00
2023-04-27T08:02:42.001Z,94724.00
2023-04-27T08:03:42.175Z,94726.00
2023-04-27T08:04:42.059Z,94730.00
2023-04-27T08:05:42.155Z,94732.00
2023-04-27T08:06:42.253Z,94736.00
2023-04-27T08:07:44.921Z,94737.00
2023-04-27T08:08:42.151Z,94734.00
2023-04-27T08:09:41.836Z,94734.00
2023-04-27T08:10:41.789Z,94737.00
2023-04-27T08:11:41.758Z,94734.00
2023-04-27T08:12:41.770Z,94730.00
2023-04-27T08:13:41.787Z,94730.00
2023-04-27T08:14:41.761Z,94732.00
2023-04-27T08:15:41.740Z,94730.00
2023-04-27T08:16:41.764Z,94730.00
2023-04-27T08:17:41.876Z,94728.00
2023-04-27T08:18:41.716Z,94728.00
2023-04-27T08:19:41.792Z,94726.00
2023-04-27T08:20:41.715Z,94734.00
2023-04-27T08:21:41.728Z,94732.00
2023-04-27T08:22:41.687Z,94736.00
2023-04-27T08:23:41.673Z,94737.00
2023-04-27T08:24:41.686Z,94736.00
2023-04-27T08:25:41.661Z,94732.00
2023-04-27T08:26:41.695Z,94730.00
2023-04-27T08:27:41.672Z,94728.00
2023-04-27T08:28:41.658Z,94726.00
2023-04-27T08:29:41.627Z,94724.00
2023-04-27T08:30:41.648Z,94726.00
2023-04-27T08:31:41.665Z,94720.00
2023-04-27T08:32:41.664Z,94724.00
2023-04-27T08:33:41.628Z,94720.00
2023-04-27T08:34:41.623Z,94724.00
2023-04-27T08:35:41.613Z,94724.00
2023-04-27T08:36:41.602Z,94722.00
2023-04-27T08:37:41.594Z,94720.00
2023-04-27T08:38:41.595Z,94724.00
2023-04-27T08:39:41.588Z,94722.00
2023-04-27T08:40:41.570Z,94720.00
2023-04-27T08:41:42.175Z,94720.00
2023-04-27T08:42:41.535Z,94724.00
2023-04-27T08:43:41.536Z,94722.00
2023-04-27T08:44:41.546Z,94720.00
2023-04-27T08:45:41.594Z,94720.00
2023-04-27T08:46:41.707Z,94720.00
2023-04-27T08:47:43.748Z,94720.00
2023-04-27T08:48:41.688Z,94720.00
2023-04-27T08:49:41.786Z,94718.00
2023-04-27T08:50:41.800Z,94718.00
2023-04-27T08:51:41.840Z,94720.00
2023-04-27T08:52:41.886Z,94718.00
2023-04-27T08:53:42.171Z,94714.00
2023-04-27T08:54:41.953Z,94718.00
2023-04-27T08:55:41.988Z,94714.00
2023-04-27T08:56:42.035Z,94712.00
2023-04-27T08:57:42.106Z,94714.00
2023-04-27T08:58:42.181Z,94714.00
2023-04-27T08:59:42.119Z,94714.00
2023-04-27T09:00:42.168Z,94712.00
2023-04-27T09:01:42.218Z,94710.00
2023-04-27T09:02:42.302Z,94710.00
2023-04-27T09:03:42.422Z,94714.00
2023-04-27T09:04:42.313Z,94712.00
2023-04-27T09:05:49.511Z,94718.00
2023-04-27T09:06:43.246Z,94714.00
2023-04-27T09:07:42.263Z,94710.00
2023-04-27T09:08:42.217Z,94708.00
2023-04-27T09:09:42.214Z,94704.00
2023-04-27T09:10:42.221Z,94704.00
2023-04-27T09:11:42.215Z,94708.00
2023-04-27T09:12:42.223Z,94706.00
2023-04-27T09:13:42.189Z,94704.00
2023-04-27T09:14:42.186Z,94706.00
2023-04-27T09:15:42.177Z,94702.00
2023-04-27T09:16:42.284Z,94702.00
2023-04-27T09:17:42.213Z,94704.00
2023-04-27T09:18:42.153Z,94702.00
2023-04-27T09:19:42.147Z,94700.00
2023-04-27T09:20:42.124Z,94702.00
2023-04-27T09:21:42.184Z,94702.00
2023-04-27T09:22:42.245Z,94696.00
2023-04-27T09:23:42.331Z,94694.00
2023-04-27T09:24:42.361Z,94698.00
2023-04-27T09:25:42.411Z,94696.00
2023-04-27T09:26:42.646Z,94698.00
2023-04-27T09:27:42.520Z,94700.00
2023-04-27T09:28:42.677Z,94700.00
2023-04-27T09:29:42.664Z,94698.00
2023-04-27T09:30:42.618Z,94694.00
2023-04-27T09:31:42.700Z,94694.00
2023-04-27T09:32:42.730Z,94692.00
2023-04-27T09:33:42.700Z,94690.00
2023-04-27T09:34:42.742Z,94687.00
2023-04-27T09:35:42.787Z,94685.00
2023-04-27T09:36:42.810Z,94687.00
2023-04-27T09:37:42.810Z,94685.00
2023-04-27T09:38:42.846Z,94685.00
2023-04-27T09:39:42.875Z,94681.00
2023-04-27T09:40:42.897Z,94677.00
2023-04-27T09:41:43.173Z,94679.00
2023-04-27T09:42:42.862Z,94675.00
2023-04-27T09:43:42.919Z,94681.00
2023-04-27T09:44:42.988Z,94683.00
2023-04-27T09:45:43.081Z,94683.00
2023-04-27T09:46:43.099Z,94681.00
2023-04-27T09:47:43.153Z,94679.00
2023-04-27T09:48:43.273Z,94673.00
2023-04-27T09:49:43.680Z,94675.00
2023-04-27T09:50:43.253Z,94673.00
2023-04-27T09:51:43.695Z,94669.00
2023-04-27T09:52:43.272Z,94671.00
2023-04-27T09:53:43.278Z,94669.00
2023-04-27T09:54:43.285Z,94667.00
2023-04-27T09:55:43.287Z,94665.00
2023-04-27T09:56:43.672Z,94661.00
2023-04-27T09:57:43.307Z,94663.00
2023-04-27T09:58:43.328Z,94655.00
2023-04-27T09:59:43.690Z,94653.00
2023-04-27T10:00:43.289Z,94653.00
2023-04-27T10:01:43.446Z,94651.00
2023-04-27T10:02:52.548Z,94655.00
2023-04-27T10:03:44.394Z,94657.00
2023-04-27T10:04:43.363Z,94655.00
2023-04-27T10:05:43.261Z,94649.00
2023-04-27T10:06:43.260Z,94649.00
2023-04-27T10:07:43.265Z,94645.00
2023-04-27T10:08:43.242Z,94649.00
2023-04-27T10:09:43.231Z,94647.00
2023-04-27T10:10:43.331Z,94645.00
2023-04-27T10:11:43.237Z,94645.00
2023-04-27T10:12:43.213Z,94632.00
2023-04-27T10:13:43.222Z,94626.00
2023-04-27T10:14:43.198Z,94630.00
2023-04-27T10:15:43.216Z,94626.00
2023-04-27T10:16:43.266Z,94626.00
2023-04-27T10:17:43.217Z,94626.00
2023-04-27T10:18:43.174Z,94624.00
2023-04-27T10:19:43.176Z,94626.00
2023-04-27T10:20:43.197Z,94626.00
2023-04-27T10:21:43.220Z,94624.00
2023-04-27T10:22:43.253Z,94622.00
2023-04-27T10:23:43.271Z,94624.00
2023-04-27T10:24:43.350Z,94622.00
2023-04-27T10:25:43.405Z,94622.00
2023-04-27T10:26:43.458Z,94620.00
2023-04-27T10:27:43.509Z,94616.00
2023-04-27T10:28:43.541Z,94614.00
2023-04-27T10:29:43.715Z,94614.00
2023-04-27T10:30:43.723Z,94618.00
2023-04-27T10:31:43.738Z,94614.00
2023-04-27T10:32:43.871Z,94614.00
2023-04-27T10:33:43.795Z,94606.00
2023-04-27T10:34:43.846Z,94610.00
2023-04-27T10:35:43.888Z,94610.00
2023-04-27T10:36:43.947Z,94606.00
2023-04-27T10:37:44.008Z,94608.00
2023-04-27T10:38:44.092Z,94604.00
2023-04-27T10:39:48.423Z,94600.00
2023-04-27T10:40:44.127Z,94604.00
2023-04-27T10:41:44.112Z,94602.00
2023-04-27T10:42:44.118Z,94596.00
2023-04-27T10:43:44.120Z,94598.00
2023-04-27T10:44:44.101Z,94596.00
2023-04-27T10:45:44.093Z,94596.00
2023-04-27T10:46:44.097Z,94594.00
2023-04-27T10:47:44.149Z,94594.00
2023-04-27T10:48:44.104Z,94589.00
2023-04-27T10:49:44.072Z,94589.00
2023-04-27T10:50:44.096Z,94587.00
2023-04-27T10:51:44.200Z,94585.00
2023-04-27T10:52:44.227Z,94583.00
2023-04-27T10:53:44.264Z,94583.00
2023-04-27T10:54:44.732Z,94583.00
2023-04-27T10:55:44.353Z,94581.00
2023-04-27T10:56:44.723Z,94579.00
2023-04-27T10:57:44.454Z,94575.00
2023-04-27T10:58:48.987Z,94577.00
2023-04-27T10:59:44.478Z,94575.00
2023-04-27T11:00:44.854Z,94571.00
2023-04-27T11:01:44.510Z,94571.00
2023-04-27T11:02:44.509Z,94573.00
2023-04-27T11:03:44.535Z,94573.00
2023-04-27T11:04:44.477Z,94569.00
2023-04-27T11:05:44.452Z,94569.00
2023-04-27T11:06:44.437Z,94567.00
2023-04-27T11:07:44.418Z,94571.00
2023-04-27T11:08:44.473Z,94569.00
2023-04-27T11:09:44.511Z,94571.00
2023-04-27T11:10:44.530Z,94571.00
2023-04-27T11:11:44.613Z,94573.00
2023-04-27T11:12:44.636Z,94573.00
2023-04-27T11:13:44.710Z,94571.00
2023-04-27T11:14:44.752Z,94569.00
2023-04-27T11:15:44.839Z,94569.00
2023-04-27T11:16:44.993Z,94569.00
2023-04-27T11:17:44.971Z,94567.00
2023-04-27T11:18:44.963Z,94567.00
2023-04-27T11:19:45.014Z,94567.00
2023-04-27T11:20:45.061Z,94571.00
2023-04-27T11:21:45.215Z,94571.00
2023-04-27T11:22:45.239Z,94571.00
2023-04-27T11:23:45.252Z,94569.00
2023-04-27T11:24:45.320Z,94567.00
2023-04-27T11:25:45.384Z,94563.00
2023-04-27T11:26:45.438Z,94563.00
2023-04-27T11:27:45.516Z,94561.00
2023-04-27T11:28:45.564Z,94561.00
2023-04-27T11:29:45.614Z,94557.00
2023-04-27T11:30:45.689Z,94557.00
2023-04-27T11:31:45.785Z,94557.00
2023-04-27T11:32:45.905Z,94555.00
2023-04-27T11:33:45.874Z,94559.00
2023-04-27T11:34:45.933Z,94557.00
2023-04-27T11:35:45.987Z,94551.00
2023-04-27T11:36:46.055Z,94557.00
2023-04-27T11:37:46.087Z,94555.00
2023-04-27T11:38:46.189Z,94553.00
2023-04-27T11:39:46.420Z,94553.00
2023-04-27T11:40:46.221Z,94551.00
2023-04-27T11:41:46.238Z,94551.00
2023-04-27T11:42:46.275Z,94555.00
2023-04-27T11:43:46.340Z,94547.00
2023-04-27T11:44:46.316Z,94549.00
2023-04-27T11:45:46.318Z,94549.00